createdAt,value
2018-07-03T00:00:29.846Z,0.50
2018-07-03T00:02:56.977Z,0.57
2018-07-03T00:05:24.130Z,0.37
2018-07-03T00:07:51.279Z,0.60
2018-07-03T00:10:18.407Z,0.40
2018-07-03T00:12:45.753Z,0.40
2018-07-03T00:15:13.013Z,0.53
2018-07-03T00:17:40.195Z,0.27
2018-07-03T00:20:07.863Z,0.67
2018-07-03T00:22:34.977Z,0.47
2018-07-03T00:25:02.103Z,0.60
2018-07-03T00:27:29.241Z,0.80
2018-07-03T00:29:56.373Z,0.63
2018-07-03T00:32:23.543Z,0.50
2018-07-03T00:34:50.775Z,0.47
2018-07-03T00:37:17.927Z,0.80
2018-07-03T00:39:45.103Z,0.80
2018-07-03T00:42:12.363Z,0.53
2018-07-03T00:44:39.505Z,0.47
2018-07-03T00:47:06.630Z,0.40
2018-07-03T00:49:33.768Z,0.60
2018-07-03T00:52:00.892Z,0.50
2018-07-03T00:54:28.000Z,0.33
2018-07-03T00:56:55.110Z,0.40
2018-07-03T00:59:22.248Z,0.50
2018-07-03T01:01:49.371Z,0.40
2018-07-03T01:04:16.686Z,0.50
2018-07-03T01:06:43.942Z,0.70
2018-07-03T01:09:11.159Z,1.03
2018-07-03T01:11:39.099Z,0.93
2018-07-03T01:14:06.259Z,0.57
2018-07-03T01:16:33.373Z,0.47
2018-07-03T01:19:00.552Z,0.57
2018-07-03T01:21:27.727Z,0.60
2018-07-03T01:23:54.861Z,0.57
2018-07-03T01:26:22.131Z,0.70
2018-07-03T01:28:49.235Z,0.60
2018-07-03T01:31:16.731Z,0.60
2018-07-03T01:33:43.907Z,0.60
2018-07-03T01:36:11.406Z,0.70
2018-07-03T01:38:38.566Z,0.60
2018-07-03T01:41:05.744Z,0.73
2018-07-03T01:43:32.883Z,0.70
2018-07-03T01:46:00.029Z,0.60
2018-07-03T01:48:27.171Z,0.90
2018-07-03T01:50:54.326Z,0.70
2018-07-03T01:53:21.447Z,0.80
2018-07-03T01:55:48.593Z,0.60
2018-07-03T01:58:15.825Z,0.60
2018-07-03T02:00:43.145Z,0.67
2018-07-03T02:03:10.331Z,0.60
2018-07-03T02:05:37.562Z,0.73
2018-07-03T02:08:04.692Z,0.60
2018-07-03T02:10:31.811Z,0.60
2018-07-03T02:12:58.966Z,0.60
2018-07-03T02:15:26.067Z,0.60
2018-07-03T02:17:53.206Z,0.47
2018-07-03T02:20:20.351Z,0.50
2018-07-03T02:22:47.467Z,0.67
2018-07-03T02:25:14.655Z,0.30
2018-07-03T02:27:41.825Z,0.50
2018-07-03T02:30:08.935Z,0.60
2018-07-03T02:32:36.095Z,0.60
2018-07-03T02:35:03.788Z,0.60
2018-07-03T02:37:30.954Z,0.33
2018-07-03T02:39:58.055Z,0.60
2018-07-03T02:42:25.213Z,0.40
2018-07-03T02:44:52.349Z,0.70
2018-07-03T02:47:19.471Z,0.57
2018-07-03T02:49:46.923Z,0.70
2018-07-03T02:52:14.207Z,0.50
2018-07-03T02:54:41.428Z,0.50
2018-07-03T02:57:08.541Z,0.57
2018-07-03T02:59:35.771Z,0.50
2018-07-03T03:02:02.896Z,0.70
2018-07-03T03:04:30.011Z,0.40
2018-07-03T03:06:57.176Z,0.57
2018-07-03T03:09:24.327Z,0.57
2018-07-03T03:11:51.580Z,0.73
2018-07-03T03:14:18.699Z,0.50
2018-07-03T03:16:45.826Z,0.60
2018-07-03T03:19:12.966Z,0.60
2018-07-03T03:21:40.083Z,0.70
2018-07-03T03:24:07.236Z,0.80
2018-07-03T03:26:34.384Z,0.50
2018-07-03T03:29:01.598Z,0.70
2018-07-03T03:31:28.895Z,1.13
2018-07-03T03:33:56.018Z,0.70
2018-07-03T03:36:23.135Z,0.50
2018-07-03T03:38:50.346Z,0.73
2018-07-03T03:41:17.492Z,0.50
2018-07-03T03:43:44.614Z,0.60
2018-07-03T03:46:11.782Z,0.70
2018-07-03T03:48:38.938Z,0.83
2018-07-03T03:51:06.088Z,0.53
2018-07-03T03:53:33.284Z,0.83
2018-07-03T03:56:00.654Z,0.53
2018-07-03T03:58:27.882Z,0.50
2018-07-03T04:00:55.079Z,0.70
2018-07-03T04:03:22.215Z,0.90
2018-07-03T04:05:49.335Z,0.77
2018-07-03T04:08:16.456Z,0.70
2018-07-03T04:10:43.567Z,0.87
2018-07-03T04:13:10.719Z,0.70
2018-07-03T04:15:37.873Z,0.70
2018-07-03T04:18:05.114Z,1.10
2018-07-03T04:20:32.364Z,1.10
2018-07-03T04:22:59.523Z,0.97
2018-07-03T04:25:26.674Z,1.00
2018-07-03T04:27:53.842Z,0.90
2018-07-03T04:30:20.967Z,0.80
2018-07-03T04:32:48.088Z,0.70
2018-07-03T04:35:15.195Z,0.80
2018-07-03T04:37:42.357Z,0.60
2018-07-03T04:40:09.513Z,0.87
2018-07-03T04:42:36.653Z,1.20
2018-07-03T04:45:04.016Z,1.20
2018-07-03T04:47:31.227Z,0.90
2018-07-03T04:49:58.491Z,1.00
2018-07-03T04:52:25.626Z,1.30
2018-07-03T04:54:52.738Z,0.80
2018-07-03T04:57:19.846Z,0.87
2018-07-03T04:59:46.967Z,0.80
2018-07-03T05:02:14.337Z,1.00
2018-07-03T05:04:41.443Z,0.90
2018-07-03T05:07:08.550Z,0.93
2018-07-03T05:09:42.599Z,0.50
2018-07-03T05:12:09.759Z,1.40
2018-07-03T05:14:36.882Z,0.90
2018-07-03T05:17:04.175Z,0.65
2018-07-03T05:19:31.360Z,0.60
2018-07-03T05:21:58.968Z,0.85
2018-07-03T05:24:26.106Z,1.10
2018-07-03T05:26:54.259Z,1.00
2018-07-03T05:29:21.394Z,1.22
2018-07-03T05:31:48.689Z,1.00
2018-07-03T05:34:15.830Z,1.00
2018-07-03T05:36:43.026Z,1.17
2018-07-03T05:39:11.511Z,1.27
2018-07-03T05:41:38.883Z,1.20
2018-07-03T05:44:06.063Z,0.75
2018-07-03T05:46:33.246Z,1.32
2018-07-03T05:49:00.622Z,0.98
2018-07-03T05:51:27.865Z,1.02
2018-07-03T05:53:55.008Z,0.90
2018-07-03T05:56:22.181Z,1.20
2018-07-03T05:58:49.265Z,0.80
2018-07-03T06:01:16.410Z,1.00
2018-07-03T06:03:43.721Z,0.62
2018-07-03T06:06:10.715Z,0.60
2018-07-03T06:08:37.835Z,0.60
2018-07-03T06:11:05.802Z,0.70
2018-07-03T06:13:32.978Z,0.80
2018-07-03T06:16:00.415Z,0.80
2018-07-03T06:18:27.712Z,0.80
2018-07-03T06:20:55.040Z,0.65
2018-07-03T06:23:22.171Z,0.90
2018-07-03T06:25:49.293Z,1.07
2018-07-03T06:28:16.414Z,0.70
2018-07-03T06:30:43.551Z,0.60
2018-07-03T06:33:10.688Z,1.00
2018-07-03T06:35:37.818Z,0.90
2018-07-03T06:38:05.020Z,0.65
2018-07-03T06:40:32.220Z,0.95
2018-07-03T06:42:59.450Z,2.35
2018-07-03T06:45:26.573Z,0.82
2018-07-03T06:47:54.242Z,0.95
2018-07-03T06:50:21.401Z,1.00
2018-07-03T06:52:48.639Z,0.90
2018-07-03T06:55:15.683Z,0.80
2018-07-03T06:57:42.838Z,1.00
2018-07-03T07:00:09.984Z,0.85
2018-07-03T07:02:37.151Z,0.90
2018-07-03T07:05:04.581Z,0.70
2018-07-03T07:07:31.731Z,0.90
2018-07-03T07:09:58.965Z,0.95
2018-07-03T07:12:26.111Z,0.82
2018-07-03T07:14:53.255Z,1.35
2018-07-03T07:17:20.423Z,0.80
2018-07-03T07:19:47.584Z,2.25
2018-07-03T07:22:14.762Z,1.20
2018-07-03T07:24:41.900Z,1.00
2018-07-03T07:27:09.307Z,0.75
2018-07-03T07:29:36.488Z,0.70
2018-07-03T07:32:03.763Z,0.80
2018-07-03T07:34:31.159Z,0.80
2018-07-03T07:36:58.927Z,0.80
2018-07-03T07:39:26.024Z,0.90
2018-07-03T07:41:53.193Z,0.90
2018-07-03T07:44:20.322Z,0.65
2018-07-03T07:46:47.475Z,0.80
2018-07-03T07:49:14.617Z,0.55
2018-07-03T07:51:41.742Z,1.02
2018-07-03T07:54:08.966Z,0.82
2018-07-03T07:56:36.151Z,1.22
2018-07-03T07:59:03.531Z,0.60
2018-07-03T08:01:30.781Z,0.72
2018-07-03T08:03:58.012Z,1.00
2018-07-03T08:06:25.259Z,0.50
2018-07-03T08:08:52.568Z,0.90
2018-07-03T08:11:19.691Z,0.80
2018-07-03T08:13:46.828Z,0.68
2018-07-03T08:16:13.943Z,0.80
2018-07-03T08:18:47.843Z,0.65
2018-07-03T08:21:15.002Z,0.72
2018-07-03T08:23:42.130Z,0.70
2018-07-03T08:26:09.266Z,1.00
2018-07-03T08:28:36.659Z,0.90
2018-07-03T08:31:04.138Z,1.25
2018-07-03T08:33:31.666Z,1.15
2018-07-03T08:35:58.866Z,0.98
2018-07-03T08:38:26.004Z,0.93
2018-07-03T08:40:53.143Z,0.57
2018-07-03T08:43:20.258Z,0.80
2018-07-03T08:45:47.363Z,0.60
2018-07-03T08:48:14.563Z,1.00
2018-07-03T08:50:41.699Z,1.00
2018-07-03T08:53:08.852Z,1.02
2018-07-03T08:55:36.194Z,0.85
2018-07-03T08:58:03.613Z,0.80
2018-07-03T09:00:30.947Z,0.65
2018-07-03T09:02:58.407Z,0.80
2018-07-03T09:05:25.562Z,0.70
2018-07-03T09:07:52.675Z,0.65
2018-07-03T09:10:19.851Z,0.80
2018-07-03T09:12:46.974Z,0.70
2018-07-03T09:15:14.086Z,0.90
2018-07-03T09:17:41.274Z,0.98
2018-07-03T09:20:08.425Z,0.88
2018-07-03T09:22:35.571Z,0.78
2018-07-03T09:25:02.857Z,0.80
2018-07-03T09:27:30.115Z,0.70
2018-07-03T09:29:57.319Z,0.90
2018-07-03T09:32:24.471Z,0.72
2018-07-03T09:34:51.603Z,1.05
2018-07-03T09:37:19.301Z,0.72
2018-07-03T09:39:46.480Z,0.65
2018-07-03T09:42:13.627Z,0.78
2018-07-03T09:44:40.756Z,0.68
2018-07-03T09:47:08.103Z,0.88
2018-07-03T09:49:35.251Z,0.80
2018-07-03T09:52:02.448Z,0.70
2018-07-03T09:54:29.690Z,0.98
2018-07-03T09:56:56.882Z,0.80
2018-07-03T09:59:24.021Z,0.70
2018-07-03T10:01:51.171Z,1.30
2018-07-03T10:04:18.287Z,0.90
2018-07-03T10:06:45.433Z,0.70
2018-07-03T10:09:12.704Z,0.90
2018-07-03T10:11:40.656Z,0.72
2018-07-03T10:14:08.400Z,0.57
2018-07-03T10:16:35.567Z,1.10
2018-07-03T10:19:02.918Z,0.75
2018-07-03T10:21:30.345Z,0.90
2018-07-03T10:23:57.493Z,0.70
2018-07-03T10:26:24.655Z,0.90
2018-07-03T10:28:52.166Z,0.70
2018-07-03T10:31:19.349Z,0.88
2018-07-03T10:33:46.469Z,0.65
2018-07-03T10:36:13.607Z,0.70
2018-07-03T10:38:40.740Z,0.90
2018-07-03T10:41:08.066Z,0.60
2018-07-03T10:43:35.226Z,0.70
2018-07-03T10:46:02.643Z,0.70
2018-07-03T10:48:29.874Z,1.37
2018-07-03T10:50:57.092Z,0.70
2018-07-03T10:53:24.219Z,0.65
2018-07-03T10:55:51.398Z,0.80
2018-07-03T10:58:18.536Z,0.60
2018-07-03T11:00:45.673Z,0.62
2018-07-03T11:03:12.866Z,0.80
2018-07-03T11:05:39.995Z,0.70
2018-07-03T11:08:07.102Z,0.72
2018-07-03T11:10:34.275Z,0.98
2018-07-03T11:13:01.484Z,0.68
2018-07-03T11:15:28.659Z,0.90
2018-07-03T11:17:55.792Z,0.60
2018-07-03T11:20:22.908Z,1.10
2018-07-03T11:22:50.066Z,0.90
2018-07-03T11:25:17.214Z,0.85
2018-07-03T11:27:44.374Z,1.10
2018-07-03T11:30:11.508Z,0.88
2018-07-03T11:32:38.659Z,0.80
2018-07-03T11:35:06.051Z,0.70
2018-07-03T11:37:33.288Z,0.93
2018-07-03T11:40:01.905Z,0.78
2018-07-03T11:42:29.260Z,0.70
2018-07-03T11:44:56.424Z,1.10
2018-07-03T11:47:23.817Z,0.90
2018-07-03T11:49:50.952Z,0.88
2018-07-03T11:52:18.079Z,0.90
2018-07-03T11:54:45.234Z,0.90
2018-07-03T11:57:12.386Z,0.95
2018-07-03T11:59:39.539Z,0.80
2018-07-03T12:02:06.763Z,0.93
2018-07-03T12:04:33.955Z,1.10
2018-07-03T12:07:01.190Z,0.90
2018-07-03T12:09:28.388Z,1.20
2018-07-03T12:11:55.504Z,0.80
2018-07-03T12:14:22.675Z,0.90
2018-07-03T12:16:49.826Z,0.95
2018-07-03T12:19:16.991Z,1.52
2018-07-03T12:21:44.163Z,0.85
2018-07-03T12:24:11.387Z,0.70
2018-07-03T12:26:38.578Z,0.70
2018-07-03T12:29:05.970Z,0.95
2018-07-03T12:31:33.140Z,0.68
2018-07-03T12:34:00.343Z,0.70
2018-07-03T12:36:27.549Z,0.78
2018-07-03T12:38:54.699Z,0.93
2018-07-03T12:41:21.831Z,0.90
2018-07-03T12:43:48.947Z,0.78
2018-07-03T12:46:16.119Z,1.02
2018-07-03T12:48:43.230Z,1.00
2018-07-03T12:51:10.446Z,0.70
2018-07-03T12:53:37.605Z,1.07
2018-07-03T12:56:04.913Z,1.00
2018-07-03T12:58:32.162Z,0.50
2018-07-03T13:00:59.341Z,0.88
2018-07-03T13:03:26.530Z,0.70
2018-07-03T13:05:53.723Z,0.90
2018-07-03T13:08:20.890Z,0.98
2018-07-03T13:10:48.017Z,0.75
2018-07-03T13:13:15.285Z,0.90
2018-07-03T13:15:42.473Z,0.88
2018-07-03T13:18:15.345Z,0.70
2018-07-03T13:20:42.489Z,0.80
2018-07-03T13:23:09.971Z,0.65
2018-07-03T13:25:37.411Z,0.90
2018-07-03T13:28:04.635Z,0.80
2018-07-03T13:30:31.846Z,1.10
2018-07-03T13:32:59.113Z,0.72
2018-07-03T13:35:26.251Z,1.00
2018-07-03T13:37:53.627Z,0.82
2018-07-03T13:40:20.865Z,0.70
2018-07-03T13:42:47.990Z,0.80
2018-07-03T13:45:15.143Z,1.02
2018-07-03T13:47:42.327Z,1.07
2018-07-03T13:50:09.546Z,1.10
2018-07-03T13:52:36.700Z,0.90
2018-07-03T13:55:04.241Z,0.78
2018-07-03T13:57:31.661Z,0.98
2018-07-03T13:59:58.958Z,0.88
2018-07-03T14:02:26.152Z,0.78
2018-07-03T14:04:53.327Z,0.90
2018-07-03T14:07:20.486Z,0.82
2018-07-03T14:09:47.646Z,0.90
2018-07-03T14:12:14.766Z,0.90
2018-07-03T14:14:41.947Z,0.90
2018-07-03T14:17:09.125Z,0.70
2018-07-03T14:19:36.290Z,0.90
2018-07-03T14:22:03.622Z,0.90
2018-07-03T14:24:30.737Z,0.82
2018-07-03T14:26:57.901Z,1.20
2018-07-03T14:29:25.036Z,1.07
2018-07-03T14:31:52.162Z,0.80
2018-07-03T14:34:19.288Z,0.80
2018-07-03T14:36:46.460Z,0.98
2018-07-03T14:39:13.831Z,1.12
2018-07-03T14:41:41.520Z,0.90
2018-07-03T14:44:08.880Z,1.17
2018-07-03T14:46:36.258Z,0.90
2018-07-03T14:49:03.812Z,1.00
2018-07-03T14:51:31.006Z,1.17
2018-07-03T14:53:58.836Z,0.93
2018-07-03T14:56:26.013Z,0.90
2018-07-03T14:58:53.204Z,1.00
2018-07-03T15:01:20.409Z,0.70
2018-07-03T15:03:48.406Z,0.78
2018-07-03T15:06:15.707Z,0.98
2018-07-03T15:08:42.825Z,1.10
2018-07-03T15:11:09.997Z,1.12
2018-07-03T15:13:37.125Z,1.10
2018-07-03T15:16:04.505Z,1.20
2018-07-03T15:18:37.410Z,0.80
2018-07-03T15:21:04.664Z,0.88
2018-07-03T15:23:31.971Z,1.20
2018-07-03T15:25:59.145Z,2.22
2018-07-03T15:28:26.280Z,1.67
2018-07-03T15:30:53.447Z,1.20
2018-07-03T15:33:20.563Z,1.10
2018-07-03T15:35:47.675Z,1.10
2018-07-03T15:38:14.807Z,1.30
2018-07-03T15:40:41.953Z,1.10
2018-07-03T15:43:09.073Z,1.47
2018-07-03T15:45:36.246Z,1.45
2018-07-03T15:48:03.451Z,0.90
2018-07-03T15:50:30.643Z,1.20
2018-07-03T15:52:57.800Z,1.40
2018-07-03T15:55:25.064Z,1.10
2018-07-03T15:57:52.960Z,1.35
2018-07-03T16:00:20.581Z,1.22
2018-07-03T16:02:59.455Z,1.25
2018-07-03T16:05:38.225Z,1.30
2018-07-03T16:09:14.839Z,1.45
2018-07-03T16:11:42.041Z,1.15
2018-07-03T16:14:10.138Z,1.15
2018-07-03T16:16:37.360Z,1.20
2018-07-03T16:19:10.555Z,1.22
2018-07-03T16:21:37.747Z,1.20
2018-07-03T16:24:04.993Z,1.00
2018-07-03T16:26:32.166Z,1.27
2018-07-03T16:28:59.441Z,1.45
2018-07-03T16:31:26.599Z,1.22
2018-07-03T16:33:54.779Z,1.30
2018-07-03T16:36:21.902Z,1.00
2018-07-03T16:38:49.173Z,1.52
2018-07-03T16:41:16.287Z,1.40
2018-07-03T16:43:43.430Z,1.17
2018-07-03T16:46:10.602Z,1.40
2018-07-03T16:48:38.482Z,1.42
2018-07-03T16:51:05.691Z,1.30
2018-07-03T16:53:32.923Z,1.20
2018-07-03T16:56:00.212Z,1.27
2018-07-03T16:58:27.386Z,1.30
2018-07-03T17:00:54.559Z,1.15
2018-07-03T17:03:21.830Z,1.25
2018-07-03T17:05:48.973Z,1.50
2018-07-03T17:08:16.087Z,1.50
2018-07-03T17:10:43.247Z,1.30
2018-07-03T17:13:10.397Z,1.10
2018-07-03T17:15:37.568Z,1.60
2018-07-03T17:18:04.773Z,1.25
2018-07-03T17:20:31.958Z,1.40
2018-07-03T17:22:59.115Z,5.15
2018-07-03T17:25:26.271Z,2.05
2018-07-03T17:27:53.447Z,1.65
2018-07-03T17:30:20.582Z,1.42
2018-07-03T17:32:47.699Z,1.00
2018-07-03T17:35:14.862Z,1.10
2018-07-03T17:37:41.991Z,1.27
2018-07-03T17:40:20.679Z,1.37
2018-07-03T17:44:07.707Z,1.60
2018-07-03T17:46:35.003Z,0.90
2018-07-03T17:49:02.189Z,1.10
2018-07-03T17:51:29.620Z,0.80
2018-07-03T17:53:56.750Z,1.10
2018-07-03T17:56:23.902Z,0.80
2018-07-03T17:58:51.038Z,1.00
2018-07-03T18:01:18.192Z,1.12
2018-07-03T18:03:45.379Z,1.20
2018-07-03T18:06:12.531Z,1.40
2018-07-03T18:08:39.690Z,1.67
2018-07-03T18:11:06.830Z,2.12
2018-07-03T18:13:33.994Z,2.30
2018-07-03T18:16:01.174Z,1.90
2018-07-03T18:18:28.538Z,1.87
2018-07-03T18:20:55.680Z,1.40
2018-07-03T18:23:22.790Z,1.12
2018-07-03T18:25:49.909Z,1.22
2018-07-03T18:28:17.079Z,1.47
2018-07-03T18:30:44.248Z,1.22
2018-07-03T18:33:11.358Z,1.40
2018-07-03T18:35:38.574Z,0.95
2018-07-03T18:38:05.851Z,1.15
2018-07-03T18:40:33.010Z,1.15
2018-07-03T18:43:00.225Z,1.37
2018-07-03T18:45:27.421Z,0.95
2018-07-03T18:47:54.563Z,1.12
2018-07-03T18:50:21.714Z,1.07
2018-07-03T18:52:48.875Z,1.10
2018-07-03T18:55:16.026Z,1.70
2018-07-03T18:57:43.155Z,1.67
2018-07-03T19:00:10.348Z,1.70
2018-07-03T19:02:37.522Z,1.35
2018-07-03T19:05:04.744Z,1.17
2018-07-03T19:07:31.951Z,1.52
2018-07-03T19:10:00.196Z,1.60
2018-07-03T19:12:27.412Z,1.40
2018-07-03T19:14:54.579Z,1.20
2018-07-03T19:17:21.727Z,1.40
2018-07-03T19:19:48.894Z,1.50
2018-07-03T19:22:16.027Z,1.60
2018-07-03T19:24:43.212Z,1.98
2018-07-03T19:27:10.407Z,1.40
2018-07-03T19:29:37.562Z,1.00
2018-07-03T19:32:04.794Z,1.42
2018-07-03T19:34:31.934Z,1.17
2018-07-03T19:36:59.355Z,1.70
2018-07-03T19:39:26.507Z,1.47
2018-07-03T19:41:53.706Z,1.47
2018-07-03T19:44:20.836Z,1.25
2018-07-03T19:46:48.031Z,1.42
2018-07-03T19:49:15.237Z,1.80
2018-07-03T19:51:42.380Z,1.75
2018-07-03T19:54:09.542Z,1.60
2018-07-03T19:56:36.780Z,1.50
2018-07-03T19:59:04.271Z,1.55
2018-07-03T20:01:31.576Z,1.50
2018-07-03T20:03:58.811Z,1.65
2018-07-03T20:06:25.970Z,1.67
2018-07-03T20:08:53.138Z,1.60
2018-07-03T20:11:20.286Z,1.90
2018-07-03T20:13:47.472Z,1.80
2018-07-03T20:16:14.630Z,1.50
2018-07-03T20:18:41.748Z,1.00
2018-07-03T20:21:08.907Z,1.23
2018-07-03T20:23:36.082Z,1.70
2018-07-03T20:26:03.295Z,1.73
2018-07-03T20:28:30.448Z,1.43
2018-07-03T20:30:57.642Z,1.00
2018-07-03T20:33:24.918Z,1.27
2018-07-03T20:35:52.035Z,1.40
2018-07-03T20:38:19.408Z,1.63
2018-07-03T20:40:58.955Z,1.40
2018-07-03T20:43:27.428Z,1.63
2018-07-03T20:45:54.748Z,1.07
2018-07-03T20:48:22.283Z,1.30
2018-07-03T20:50:49.449Z,1.40
2018-07-03T20:53:16.616Z,1.20
2018-07-03T20:55:43.788Z,1.10
2018-07-03T20:58:11.041Z,1.17
2018-07-03T21:00:38.186Z,1.43
2018-07-03T21:03:05.410Z,1.07
2018-07-03T21:05:32.694Z,1.27
2018-07-03T21:07:59.881Z,1.37
2018-07-03T21:10:27.048Z,1.23
2018-07-03T21:12:54.147Z,1.47
2018-07-03T21:15:21.266Z,1.43
2018-07-03T21:17:48.414Z,1.30
2018-07-03T21:20:15.570Z,1.23
2018-07-03T21:22:42.703Z,0.90
2018-07-03T21:25:09.834Z,1.53
2018-07-03T21:27:36.956Z,1.20
2018-07-03T21:30:04.189Z,1.00
2018-07-03T21:32:31.376Z,1.10
2018-07-03T21:34:58.575Z,1.40
2018-07-03T21:37:25.686Z,1.20
2018-07-03T21:39:52.783Z,2.03
2018-07-03T21:42:19.890Z,1.50
2018-07-03T21:44:46.998Z,1.33
2018-07-03T21:47:14.136Z,1.50
2018-07-03T21:49:41.262Z,1.13
2018-07-03T21:52:08.368Z,1.70
2018-07-03T21:54:35.510Z,1.13
2018-07-03T21:57:02.973Z,1.40
2018-07-03T21:59:30.152Z,1.40
2018-07-03T22:01:57.324Z,1.43
2018-07-03T22:04:24.467Z,1.10
2018-07-03T22:06:51.655Z,1.03
2018-07-03T22:09:18.965Z,1.47
2018-07-03T22:11:46.096Z,1.17
2018-07-03T22:14:13.309Z,0.90
2018-07-03T22:16:40.445Z,1.00
2018-07-03T22:19:07.591Z,1.40
2018-07-03T22:21:35.555Z,1.30
2018-07-03T22:24:02.739Z,1.30
2018-07-03T22:26:29.913Z,1.00
2018-07-03T22:28:57.027Z,1.20
2018-07-03T22:31:24.144Z,1.20
2018-07-03T22:33:51.249Z,1.33
2018-07-03T22:36:18.366Z,1.20
2018-07-03T22:38:45.590Z,1.13
2018-07-03T22:41:12.627Z,1.00
2018-07-03T22:43:39.746Z,0.90
2018-07-03T22:46:06.873Z,1.13
2018-07-03T22:48:33.995Z,0.93
2018-07-03T22:51:01.136Z,1.00
2018-07-03T22:53:28.297Z,0.80
2018-07-03T22:55:55.426Z,0.87
2018-07-03T22:58:22.593Z,1.00
2018-07-03T23:00:49.659Z,0.97
2018-07-03T23:03:16.777Z,0.90
2018-07-03T23:05:43.878Z,1.17
2018-07-03T23:08:11.007Z,1.17
2018-07-03T23:10:38.143Z,1.00
2018-07-03T23:13:05.283Z,0.83
2018-07-03T23:15:32.587Z,1.30
2018-07-03T23:17:59.796Z,1.10
2018-07-03T23:20:26.906Z,1.30
2018-07-03T23:22:54.043Z,1.13
2018-07-03T23:25:21.307Z,1.17
2018-07-03T23:27:48.418Z,0.90
2018-07-03T23:30:15.566Z,1.00
2018-07-03T23:32:42.689Z,1.20
2018-07-03T23:35:09.847Z,0.90
2018-07-03T23:37:36.982Z,0.90
2018-07-03T23:40:04.149Z,1.20
2018-07-03T23:42:31.408Z,1.00
2018-07-03T23:44:58.599Z,1.00
2018-07-03T23:47:37.403Z,1.10
2018-07-03T23:50:16.159Z,1.07
2018-07-03T23:52:49.214Z,1.30
2018-07-03T23:55:27.997Z,1.40
2018-07-03T23:58:06.716Z,1.60
